Terminal Aerodrome Forecast
Issued by NWS

Home | Current Version | Previous Version | Text Only | Print | Product List | Glossary On
Versions: 1 2 3 4 5 6 7 8 9
000
FTUS42 TJSJ 271100
TAFJMZ
TAF
TJMZ 271130Z 2712/2812 VRB05KT P6SM FEW030
     FM271530 04013KT P6SM FEW040
     FM272300 06006KT P6SM SCT040
      AMD NOT SKED TIL 271500=

USA.gov is the U.S. government's official web portal to all federal, state and local government web resources and services.